sensor_id;sensor_type;location;lat;lon;timestamp;temperature;humidity
34829;DHT22;21042;47.620;12.188;2023-04-01T00:01:24;6.60;99.90
34829;DHT22;21042;47.620;12.188;2023-04-01T00:03:50;6.60;99.90
34829;DHT22;21042;47.620;12.188;2023-04-01T00:06:18;6.60;99.90
34829;DHT22;21042;47.620;12.188;2023-04-01T00:08:45;6.50;99.90
34829;DHT22;21042;47.620;12.188;2023-04-01T00:11:13;6.50;99.90
34829;DHT22;21042;47.620;12.188;2023-04-01T00:13:40;6.50;99.90
34829;DHT22;21042;47.620;12.188;2023-04-01T00:16:08;6.50;99.90
34829;DHT22;21042;47.620;12.188;2023-04-01T00:18:45;6.50;99.90
34829;DHT22;21042;47.620;12.188;2023-04-01T00:21:13;6.50;99.90
34829;DHT22;21042;47.620;12.188;2023-04-01T00:23:41;6.50;99.90
34829;DHT22;21042;47.620;12.188;2023-04-01T00:26:08;6.50;99.90
34829;DHT22;21042;47.620;12.188;2023-04-01T00:28:35;6.40;99.90
34829;DHT22;21042;47.620;12.188;2023-04-01T00:31:06;6.50;99.90
34829;DHT22;21042;47.620;12.188;2023-04-01T00:33:33;6.50;99.90
34829;DHT22;21042;47.620;12.188;2023-04-01T00:36:11;6.60;99.90
34829;DHT22;21042;47.620;12.188;2023-04-01T00:38:38;6.70;99.90
34829;DHT22;21042;47.620;12.188;2023-04-01T00:41:05;6.80;99.90
34829;DHT22;21042;47.620;12.188;2023-04-01T00:43:33;6.80;99.90
34829;DHT22;21042;47.620;12.188;2023-04-01T00:46:00;6.80;99.90
34829;DHT22;21042;47.620;12.188;2023-04-01T00:48:30;6.80;99.90
34829;DHT22;21042;47.620;12.188;2023-04-01T00:51:09;6.80;99.90
34829;DHT22;21042;47.620;12.188;2023-04-01T00:53:41;6.90;99.90
34829;DHT22;21042;47.620;12.188;2023-04-01T00:56:35;6.90;99.90
34829;DHT22;21042;47.620;12.188;2023-04-01T00:59:27;7.00;99.90
34829;DHT22;21042;47.620;12.188;2023-04-01T01:01:56;7.00;99.90
34829;DHT22;21042;47.620;12.188;2023-04-01T01:04:31;7.00;99.90
34829;DHT22;21042;47.620;12.188;2023-04-01T01:12:34;6.90;99.90
34829;DHT22;21042;47.620;12.188;2023-04-01T01:15:31;6.90;99.90
34829;DHT22;21042;47.620;12.188;2023-04-01T01:27:17;6.70;99.90
34829;DHT22;21042;47.620;12.188;2023-04-01T01:29:55;6.50;99.90
34829;DHT22;21042;47.620;12.188;2023-04-01T01:35:26;6.40;99.90
34829;DHT22;21042;47.620;12.188;2023-04-01T01:37:58;6.30;99.90
34829;DHT22;21042;47.620;12.188;2023-04-01T01:40:28;6.30;99.90
34829;DHT22;21042;47.620;12.188;2023-04-01T01:42:59;6.30;99.90
34829;DHT22;21042;47.620;12.188;2023-04-01T01:45:27;6.30;99.90
34829;DHT22;21042;47.620;12.188;2023-04-01T01:47:56;6.30;99.90
34829;DHT22;21042;47.620;12.188;2023-04-01T01:50:25;6.30;99.90
34829;DHT22;21042;47.620;12.188;2023-04-01T01:53:01;6.30;99.90
34829;DHT22;21042;47.620;12.188;2023-04-01T01:55:38;6.30;99.90
34829;DHT22;21042;47.620;12.188;2023-04-01T02:01:05;6.20;99.90
34829;DHT22;21042;47.620;12.188;2023-04-01T02:03:35;6.20;99.90
34829;DHT22;21042;47.620;12.188;2023-04-01T02:06:07;6.20;99.90
34829;DHT22;21042;47.620;12.188;2023-04-01T02:08:44;6.10;99.90
34829;DHT22;21042;47.620;12.188;2023-04-01T02:11:15;6.10;99.90
34829;DHT22;21042;47.620;12.188;2023-04-01T02:14:05;6.10;99.90
34829;DHT22;21042;47.620;12.188;2023-04-01T02:16:38;6.00;99.90
34829;DHT22;21042;47.620;12.188;2023-04-01T02:19:08;6.10;99.90
34829;DHT22;21042;47.620;12.188;2023-04-01T02:21:37;6.10;99.90
34829;DHT22;21042;47.620;12.188;2023-04-01T02:24:10;6.20;99.90
34829;DHT22;21042;47.620;12.188;2023-04-01T02:26:39;6.30;99.90
34829;DHT22;21042;47.620;12.188;2023-04-01T02:29:07;6.40;99.90
34829;DHT22;21042;47.620;12.188;2023-04-01T02:31:36;6.50;99.90
34829;DHT22;21042;47.620;12.188;2023-04-01T02:34:03;6.50;99.90
34829;DHT22;21042;47.620;12.188;2023-04-01T02:41:22;6.60;99.90
34829;DHT22;21042;47.620;12.188;2023-04-01T02:43:49;6.60;99.90
34829;DHT22;21042;47.620;12.188;2023-04-01T02:46:16;6.60;99.90
34829;DHT22;21042;47.620;12.188;2023-04-01T02:48:44;6.50;99.90
34829;DHT22;21042;47.620;12.188;2023-04-01T02:51:10;6.40;99.90
34829;DHT22;21042;47.620;12.188;2023-04-01T02:53:37;6.40;99.90
34829;DHT22;21042;47.620;12.188;2023-04-01T02:56:04;6.40;99.90
34829;DHT22;21042;47.620;12.188;2023-04-01T02:58:31;6.30;99.90
34829;DHT22;21042;47.620;12.188;2023-04-01T03:00:57;6.40;99.90
34829;DHT22;21042;47.620;12.188;2023-04-01T03:03:24;6.30;99.90
34829;DHT22;21042;47.620;12.188;2023-04-01T03:05:51;6.30;99.90
34829;DHT22;21042;47.620;12.188;2023-04-01T03:08:18;6.40;99.90
34829;DHT22;21042;47.620;12.188;2023-04-01T03:10:45;6.40;99.90
34829;DHT22;21042;47.620;12.188;2023-04-01T03:13:11;6.40;99.90
34829;DHT22;21042;47.620;12.188;2023-04-01T03:15:38;6.40;99.90
34829;DHT22;21042;47.620;12.188;2023-04-01T03:18:05;6.40;99.90
34829;DHT22;21042;47.620;12.188;2023-04-01T03:20:32;6.30;99.90
34829;DHT22;21042;47.620;12.188;2023-04-01T03:22:58;6.20;99.90
34829;DHT22;21042;47.620;12.188;2023-04-01T03:25:26;6.20;99.90
34829;DHT22;21042;47.620;12.188;2023-04-01T03:27:55;6.10;99.90
34829;DHT22;21042;47.620;12.188;2023-04-01T03:30:22;6.10;99.90
34829;DHT22;21042;47.620;12.188;2023-04-01T03:32:50;6.20;99.90
34829;DHT22;21042;47.620;12.188;2023-04-01T03:35:17;6.20;99.90
34829;DHT22;21042;47.620;12.188;2023-04-01T03:37:45;6.20;99.90
34829;DHT22;21042;47.620;12.188;2023-04-01T03:40:11;6.20;99.90
34829;DHT22;21042;47.620;12.188;2023-04-01T03:42:38;6.20;99.90
34829;DHT22;21042;47.620;12.188;2023-04-01T03:45:06;6.20;99.90
34829;DHT22;21042;47.620;12.188;2023-04-01T03:47:33;6.20;99.90
34829;DHT22;21042;47.620;12.188;2023-04-01T03:49:59;6.10;99.90
34829;DHT22;21042;47.620;12.188;2023-04-01T03:52:26;6.10;99.90
34829;DHT22;21042;47.620;12.188;2023-04-01T03:54:53;6.20;99.90
34829;DHT22;21042;47.620;12.188;2023-04-01T03:57:20;6.30;99.90
34829;DHT22;21042;47.620;12.188;2023-04-01T03:59:47;6.30;99.90
34829;DHT22;21042;47.620;12.188;2023-04-01T04:02:14;6.30;99.90
34829;DHT22;21042;47.620;12.188;2023-04-01T04:04:41;6.30;99.90
34829;DHT22;21042;47.620;12.188;2023-04-01T04:07:09;6.30;99.90
34829;DHT22;21042;47.620;12.188;2023-04-01T04:09:56;6.30;99.90
34829;DHT22;21042;47.620;12.188;2023-04-01T04:12:22;6.30;99.90
34829;DHT22;21042;47.620;12.188;2023-04-01T04:14:49;6.30;99.90
34829;DHT22;21042;47.620;12.188;2023-04-01T04:17:29;6.10;99.90
34829;DHT22;21042;47.620;12.188;2023-04-01T04:19:55;6.20;99.90
34829;DHT22;21042;47.620;12.188;2023-04-01T04:22:22;6.10;99.90
34829;DHT22;21042;47.620;12.188;2023-04-01T04:24:49;6.10;99.90
34829;DHT22;21042;47.620;12.188;2023-04-01T04:27:28;6.10;99.90
34829;DHT22;21042;47.620;12.188;2023-04-01T04:30:06;6.10;99.90
34829;DHT22;21042;47.620;12.188;2023-04-01T04:32:33;6.00;99.90
34829;DHT22;21042;47.620;12.188;2023-04-01T04:35:00;6.00;99.90
34829;DHT22;21042;47.620;12.188;2023-04-01T04:37:28;6.00;99.90
34829;DHT22;21042;47.620;12.188;2023-04-01T04:39:55;6.00;99.90
34829;DHT22;21042;47.620;12.188;2023-04-01T04:42:21;6.00;99.90
34829;DHT22;21042;47.620;12.188;2023-04-01T04:44:52;5.90;99.90
34829;DHT22;21042;47.620;12.188;2023-04-01T04:47:19;5.90;99.90
34829;DHT22;21042;47.620;12.188;2023-04-01T04:49:46;6.00;99.90
34829;DHT22;21042;47.620;12.188;2023-04-01T04:52:13;6.00;99.90
34829;DHT22;21042;47.620;12.188;2023-04-01T04:54:39;6.00;99.90
34829;DHT22;21042;47.620;12.188;2023-04-01T04:57:06;5.90;99.90
34829;DHT22;21042;47.620;12.188;2023-04-01T04:59:40;5.90;99.90
34829;DHT22;21042;47.620;12.188;2023-04-01T05:02:27;6.00;99.90
34829;DHT22;21042;47.620;12.188;2023-04-01T05:04:54;6.00;99.90
34829;DHT22;21042;47.620;12.188;2023-04-01T05:07:28;6.10;99.90
34829;DHT22;21042;47.620;12.188;2023-04-01T05:09:55;6.20;99.90
34829;DHT22;21042;47.620;12.188;2023-04-01T05:12:22;6.20;99.90
34829;DHT22;21042;47.620;12.188;2023-04-01T05:17:30;6.20;99.90
34829;DHT22;21042;47.620;12.188;2023-04-01T05:19:57;6.20;99.90
34829;DHT22;21042;47.620;12.188;2023-04-01T05:22:25;6.30;99.90
34829;DHT22;21042;47.620;12.188;2023-04-01T05:24:52;6.30;99.90
34829;DHT22;21042;47.620;12.188;2023-04-01T05:27:19;6.40;99.90
34829;DHT22;21042;47.620;12.188;2023-04-01T05:29:46;6.50;99.90
34829;DHT22;21042;47.620;12.188;2023-04-01T05:32:32;6.50;99.90
34829;DHT22;21042;47.620;12.188;2023-04-01T05:35:00;6.50;99.90
34829;DHT22;21042;47.620;12.188;2023-04-01T05:37:26;6.50;99.90
34829;DHT22;21042;47.620;12.188;2023-04-01T05:39:54;6.60;99.90
34829;DHT22;21042;47.620;12.188;2023-04-01T05:42:21;6.70;99.90
34829;DHT22;21042;47.620;12.188;2023-04-01T05:44:47;6.70;99.90
34829;DHT22;21042;47.620;12.188;2023-04-01T05:47:37;6.80;99.90
34829;DHT22;21042;47.620;12.188;2023-04-01T05:50:04;6.90;99.90
34829;DHT22;21042;47.620;12.188;2023-04-01T05:52:31;7.00;99.90
34829;DHT22;21042;47.620;12.188;2023-04-01T05:54:59;7.00;99.90
34829;DHT22;21042;47.620;12.188;2023-04-01T05:57:26;7.00;99.90
34829;DHT22;21042;47.620;12.188;2023-04-01T05:59:54;7.00;99.90
34829;DHT22;21042;47.620;12.188;2023-04-01T06:02:21;7.00;99.90
34829;DHT22;21042;47.620;12.188;2023-04-01T06:04:48;7.00;99.90
34829;DHT22;21042;47.620;12.188;2023-04-01T06:07:17;7.10;99.90
34829;DHT22;21042;47.620;12.188;2023-04-01T06:09:45;7.10;99.90
34829;DHT22;21042;47.620;12.188;2023-04-01T06:25:59;7.60;99.90
34829;DHT22;21042;47.620;12.188;2023-04-01T06:31:20;7.90;99.90
34829;DHT22;21042;47.620;12.188;2023-04-01T06:34:08;8.00;99.90
34829;DHT22;21042;47.620;12.188;2023-04-01T06:36:52;8.20;99.90
34829;DHT22;21042;47.620;12.188;2023-04-01T06:54:21;8.30;99.90
34829;DHT22;21042;47.620;12.188;2023-04-01T06:57:12;8.40;99.90
34829;DHT22;21042;47.620;12.188;2023-04-01T06:59:43;8.50;99.90
34829;DHT22;21042;47.620;12.188;2023-04-01T07:04:58;8.90;99.90
34829;DHT22;21042;47.620;12.188;2023-04-01T07:07:33;9.00;99.90
34829;DHT22;21042;47.620;12.188;2023-04-01T07:10:20;9.10;99.90
34829;DHT22;21042;47.620;12.188;2023-04-01T07:13:15;9.30;99.90
34829;DHT22;21042;47.620;12.188;2023-04-01T07:18:56;9.30;99.90
34829;DHT22;21042;47.620;12.188;2023-04-01T07:22:14;9.40;99.90
34829;DHT22;21042;47.620;12.188;2023-04-01T07:25:13;9.10;99.90
34829;DHT22;21042;47.620;12.188;2023-04-01T07:27:43;9.10;99.90
34829;DHT22;21042;47.620;12.188;2023-04-01T07:30:20;9.10;99.90
34829;DHT22;21042;47.620;12.188;2023-04-01T07:35:33;9.10;99.90
34829;DHT22;21042;47.620;12.188;2023-04-01T07:44:05;9.10;99.90
34829;DHT22;21042;47.620;12.188;2023-04-01T07:46:54;9.00;99.90
34829;DHT22;21042;47.620;12.188;2023-04-01T07:50:02;8.90;99.90
34829;DHT22;21042;47.620;12.188;2023-04-01T07:52:59;8.80;99.90
34829;DHT22;21042;47.620;12.188;2023-04-01T07:55:45;8.80;99.90
34829;DHT22;21042;47.620;12.188;2023-04-01T07:58:23;8.70;99.90
34829;DHT22;21042;47.620;12.188;2023-04-01T08:01:04;8.80;99.90
34829;DHT22;21042;47.620;12.188;2023-04-01T08:12:31;9.30;99.90
34829;DHT22;21042;47.620;12.188;2023-04-01T08:16:05;9.40;99.90
34829;DHT22;21042;47.620;12.188;2023-04-01T08:18:56;9.70;99.90
34829;DHT22;21042;47.620;12.188;2023-04-01T08:21:47;9.80;99.90
34829;DHT22;21042;47.620;12.188;2023-04-01T08:24:40;9.90;99.90
34829;DHT22;21042;47.620;12.188;2023-04-01T08:27:21;10.10;99.90
34829;DHT22;21042;47.620;12.188;2023-04-01T08:29:58;10.20;99.90
34829;DHT22;21042;47.620;12.188;2023-04-01T08:32:30;10.30;99.90
34829;DHT22;21042;47.620;12.188;2023-04-01T08:38:14;10.40;99.90
34829;DHT22;21042;47.620;12.188;2023-04-01T08:46:34;11.00;99.90
34829;DHT22;21042;47.620;12.188;2023-04-01T08:55:44;11.10;99.90
34829;DHT22;21042;47.620;12.188;2023-04-01T09:12:44;11.50;99.90
34829;DHT22;21042;47.620;12.188;2023-04-01T09:21:19;11.60;99.90
34829;DHT22;21042;47.620;12.188;2023-04-01T09:24:19;12.00;99.90
34829;DHT22;21042;47.620;12.188;2023-04-01T09:27:17;12.30;99.90
34829;DHT22;21042;47.620;12.188;2023-04-01T09:35:46;12.20;99.90
34829;DHT22;21042;47.620;12.188;2023-04-01T09:41:36;12.10;99.90
34829;DHT22;21042;47.620;12.188;2023-04-01T09:44:31;11.80;99.90
34829;DHT22;21042;47.620;12.188;2023-04-01T09:50:27;11.90;99.90
34829;DHT22;21042;47.620;12.188;2023-04-01T10:04:49;12.10;99.90
34829;DHT22;21042;47.620;12.188;2023-04-01T10:07:56;12.40;99.90
34829;DHT22;21042;47.620;12.188;2023-04-01T10:10:33;12.40;99.90
34829;DHT22;21042;47.620;12.188;2023-04-01T10:19:37;12.80;99.90
34829;DHT22;21042;47.620;12.188;2023-04-01T11:07:29;14.00;99.90
34829;DHT22;21042;47.620;12.188;2023-04-01T11:13:28;13.70;99.90
34829;DHT22;21042;47.620;12.188;2023-04-01T11:16:18;13.80;99.90
34829;DHT22;21042;47.620;12.188;2023-04-01T11:33:28;14.20;99.90
34829;DHT22;21042;47.620;12.188;2023-04-01T11:42:00;14.10;99.90
34829;DHT22;21042;47.620;12.188;2023-04-01T11:47:49;13.80;99.90
34829;DHT22;21042;47.620;12.188;2023-04-01T11:50:39;13.70;99.90
34829;DHT22;21042;47.620;12.188;2023-04-01T11:59:25;13.50;99.90
34829;DHT22;21042;47.620;12.188;2023-04-01T12:02:13;13.50;99.90
34829;DHT22;21042;47.620;12.188;2023-04-01T12:05:14;13.40;99.90
34829;DHT22;21042;47.620;12.188;2023-04-01T12:11:26;13.80;99.90
34829;DHT22;21042;47.620;12.188;2023-04-01T12:21:54;14.90;99.90
34829;DHT22;21042;47.620;12.188;2023-04-01T12:27:45;15.10;99.00
34829;DHT22;21042;47.620;12.188;2023-04-01T12:30:34;15.00;99.80
34829;DHT22;21042;47.620;12.188;2023-04-01T12:36:00;15.10;98.30
34829;DHT22;21042;47.620;12.188;2023-04-01T12:38:42;14.90;96.70
34829;DHT22;21042;47.620;12.188;2023-04-01T12:41:37;14.60;97.10
34829;DHT22;21042;47.620;12.188;2023-04-01T12:49:57;13.80;97.80
34829;DHT22;21042;47.620;12.188;2023-04-01T12:58:25;13.60;97.50
34829;DHT22;21042;47.620;12.188;2023-04-01T13:06:53;13.70;96.10
34829;DHT22;21042;47.620;12.188;2023-04-01T13:09:27;13.80;97.00
34829;DHT22;21042;47.620;12.188;2023-04-01T13:20:20;13.50;98.40
34829;DHT22;21042;47.620;12.188;2023-04-01T13:23:11;13.50;98.00
34829;DHT22;21042;47.620;12.188;2023-04-01T13:25:59;13.60;99.00
34829;DHT22;21042;47.620;12.188;2023-04-01T13:28:59;13.80;98.00
34829;DHT22;21042;47.620;12.188;2023-04-01T13:31:58;14.00;98.00
34829;DHT22;21042;47.620;12.188;2023-04-01T13:42:49;14.20;98.30
34829;DHT22;21042;47.620;12.188;2023-04-01T13:45:21;13.90;94.20
34829;DHT22;21042;47.620;12.188;2023-04-01T13:51:05;13.80;97.80
34829;DHT22;21042;47.620;12.188;2023-04-01T13:53:57;13.70;96.50
34829;DHT22;21042;47.620;12.188;2023-04-01T14:04:58;12.70;97.00
34829;DHT22;21042;47.620;12.188;2023-04-01T14:10:20;12.80;99.10
34829;DHT22;21042;47.620;12.188;2023-04-01T14:15:54;12.80;98.30
34829;DHT22;21042;47.620;12.188;2023-04-01T14:21:47;12.10;98.00
34829;DHT22;21042;47.620;12.188;2023-04-01T14:24:35;12.00;98.70
34829;DHT22;21042;47.620;12.188;2023-04-01T14:27:13;12.00;99.50
34829;DHT22;21042;47.620;12.188;2023-04-01T14:29:53;12.10;99.30
34829;DHT22;21042;47.620;12.188;2023-04-01T14:32:51;12.00;99.60
34829;DHT22;21042;47.620;12.188;2023-04-01T14:45:17;11.70;99.80
34829;DHT22;21042;47.620;12.188;2023-04-01T14:50:43;11.50;99.90
34829;DHT22;21042;47.620;12.188;2023-04-01T14:56:09;11.40;99.90
34829;DHT22;21042;47.620;12.188;2023-04-01T14:58:46;11.40;99.90
34829;DHT22;21042;47.620;12.188;2023-04-01T15:18:03;10.90;99.90
34829;DHT22;21042;47.620;12.188;2023-04-01T15:20:53;10.80;99.90
34829;DHT22;21042;47.620;12.188;2023-04-01T15:28:58;10.70;99.90
34829;DHT22;21042;47.620;12.188;2023-04-01T15:34:17;10.90;99.90
34829;DHT22;21042;47.620;12.188;2023-04-01T15:37:14;10.90;99.90
34829;DHT22;21042;47.620;12.188;2023-04-01T15:40:22;10.90;99.90
34829;DHT22;21042;47.620;12.188;2023-04-01T15:42:55;10.90;99.90
34829;DHT22;21042;47.620;12.188;2023-04-01T15:45:41;11.00;99.90
34829;DHT22;21042;47.620;12.188;2023-04-01T15:48:33;10.90;99.90
34829;DHT22;21042;47.620;12.188;2023-04-01T15:51:25;10.80;99.90
34829;DHT22;21042;47.620;12.188;2023-04-01T15:54:32;10.90;99.90
34829;DHT22;21042;47.620;12.188;2023-04-01T16:00:02;10.90;99.90
34829;DHT22;21042;47.620;12.188;2023-04-01T16:24:05;10.80;99.90
34829;DHT22;21042;47.620;12.188;2023-04-01T16:27:00;10.60;99.90
34829;DHT22;21042;47.620;12.188;2023-04-01T16:32:41;10.40;99.90
34829;DHT22;21042;47.620;12.188;2023-04-01T16:43:39;10.20;99.90
34829;DHT22;21042;47.620;12.188;2023-04-01T16:56:54;10.10;99.90
34829;DHT22;21042;47.620;12.188;2023-04-01T16:59:25;10.10;99.90
34829;DHT22;21042;47.620;12.188;2023-04-01T17:01:57;10.00;99.90
34829;DHT22;21042;47.620;12.188;2023-04-01T17:04:44;10.10;99.90
34829;DHT22;21042;47.620;12.188;2023-04-01T17:07:27;10.00;99.90
34829;DHT22;21042;47.620;12.188;2023-04-01T17:12:37;10.00;99.90
34829;DHT22;21042;47.620;12.188;2023-04-01T17:18:06;9.80;99.90
34829;DHT22;21042;47.620;12.188;2023-04-01T17:26:01;9.80;99.90
34829;DHT22;21042;47.620;12.188;2023-04-01T17:28:41;9.70;99.90
34829;DHT22;21042;47.620;12.188;2023-04-01T17:37:14;9.50;99.90
34829;DHT22;21042;47.620;12.188;2023-04-01T17:39:55;9.40;99.90
34829;DHT22;21042;47.620;12.188;2023-04-01T17:42:40;9.40;99.90
34829;DHT22;21042;47.620;12.188;2023-04-01T17:45:33;9.40;99.90
34829;DHT22;21042;47.620;12.188;2023-04-01T17:50:46;9.30;99.90
34829;DHT22;21042;47.620;12.188;2023-04-01T17:56:16;9.30;99.90
34829;DHT22;21042;47.620;12.188;2023-04-01T17:59:13;9.20;99.90
34829;DHT22;21042;47.620;12.188;2023-04-01T18:01:52;9.30;99.90
34829;DHT22;21042;47.620;12.188;2023-04-01T18:07:20;9.20;99.90
34829;DHT22;21042;47.620;12.188;2023-04-01T18:15:40;9.00;99.90
34829;DHT22;21042;47.620;12.188;2023-04-01T18:22:09;8.80;99.90
34829;DHT22;21042;47.620;12.188;2023-04-01T18:27:15;8.70;99.90
34829;DHT22;21042;47.620;12.188;2023-04-01T18:38:13;8.50;99.90
34829;DHT22;21042;47.620;12.188;2023-04-01T18:40:51;8.40;99.90
34829;DHT22;21042;47.620;12.188;2023-04-01T18:43:38;8.50;99.90
34829;DHT22;21042;47.620;12.188;2023-04-01T18:46:11;8.40;99.90
34829;DHT22;21042;47.620;12.188;2023-04-01T18:51:26;8.40;99.90
34829;DHT22;21042;47.620;12.188;2023-04-01T18:54:04;8.40;99.90
34829;DHT22;21042;47.620;12.188;2023-04-01T18:56:39;8.40;99.90
34829;DHT22;21042;47.620;12.188;2023-04-01T18:59:15;8.30;99.90
34829;DHT22;21042;47.620;12.188;2023-04-01T19:04:45;8.40;99.90
34829;DHT22;21042;47.620;12.188;2023-04-01T19:10:31;8.40;99.90
34829;DHT22;21042;47.620;12.188;2023-04-01T19:15:57;8.40;99.90
34829;DHT22;21042;47.620;12.188;2023-04-01T19:21:16;8.30;99.90
34829;DHT22;21042;47.620;12.188;2023-04-01T19:24:10;8.30;99.90
34829;DHT22;21042;47.620;12.188;2023-04-01T19:26:47;8.20;99.90
34829;DHT22;21042;47.620;12.188;2023-04-01T19:34:48;8.20;99.90
34829;DHT22;21042;47.620;12.188;2023-04-01T19:37:54;8.10;99.90
34829;DHT22;21042;47.620;12.188;2023-04-01T19:46:42;8.10;99.90
34829;DHT22;21042;47.620;12.188;2023-04-01T19:49:42;8.10;99.90
34829;DHT22;21042;47.620;12.188;2023-04-01T19:52:37;8.10;99.90
34829;DHT22;21042;47.620;12.188;2023-04-01T20:00:47;8.10;99.90
34829;DHT22;21042;47.620;12.188;2023-04-01T20:06:35;8.10;99.90
34829;DHT22;21042;47.620;12.188;2023-04-01T20:14:56;8.10;99.90
34829;DHT22;21042;47.620;12.188;2023-04-01T20:17:33;8.00;99.90
34829;DHT22;21042;47.620;12.188;2023-04-01T20:28:19;8.10;99.90
34829;DHT22;21042;47.620;12.188;2023-04-01T20:37:00;8.00;99.90
34829;DHT22;21042;47.620;12.188;2023-04-01T20:39:45;7.90;99.90
34829;DHT22;21042;47.620;12.188;2023-04-01T20:42:52;7.90;99.90
34829;DHT22;21042;47.620;12.188;2023-04-01T20:45:48;7.90;99.90
34829;DHT22;21042;47.620;12.188;2023-04-01T20:51:16;7.90;99.90
34829;DHT22;21042;47.620;12.188;2023-04-01T21:02:56;7.80;99.90
34829;DHT22;21042;47.620;12.188;2023-04-01T21:19:52;7.60;99.90
34829;DHT22;21042;47.620;12.188;2023-04-01T21:22:39;7.60;99.90
34829;DHT22;21042;47.620;12.188;2023-04-01T21:26:19;7.60;99.90
34829;DHT22;21042;47.620;12.188;2023-04-01T21:37:27;7.60;99.90
34829;DHT22;21042;47.620;12.188;2023-04-01T21:45:36;7.70;99.90
34829;DHT22;21042;47.620;12.188;2023-04-01T21:54:22;7.60;99.90
34829;DHT22;21042;47.620;12.188;2023-04-01T22:02:48;7.60;99.90
34829;DHT22;21042;47.620;12.188;2023-04-01T22:05:28;7.50;99.90
34829;DHT22;21042;47.620;12.188;2023-04-01T22:08:43;7.50;99.90
34829;DHT22;21042;47.620;12.188;2023-04-01T22:14:52;7.60;99.90
34829;DHT22;21042;47.620;12.188;2023-04-01T22:17:30;7.50;99.90
34829;DHT22;21042;47.620;12.188;2023-04-01T22:20:13;7.50;99.90
34829;DHT22;21042;47.620;12.188;2023-04-01T22:23:07;7.50;99.90
34829;DHT22;21042;47.620;12.188;2023-04-01T22:25:58;7.50;99.90
34829;DHT22;21042;47.620;12.188;2023-04-01T22:28:35;7.40;99.90
34829;DHT22;21042;47.620;12.188;2023-04-01T22:31:05;7.40;99.90
34829;DHT22;21042;47.620;12.188;2023-04-01T22:39:33;7.40;99.90
34829;DHT22;21042;47.620;12.188;2023-04-01T22:52:57;7.50;99.90
34829;DHT22;21042;47.620;12.188;2023-04-01T22:55:32;7.50;99.90
34829;DHT22;21042;47.620;12.188;2023-04-01T22:58:10;7.50;99.90
34829;DHT22;21042;47.620;12.188;2023-04-01T23:00:48;7.50;99.90
34829;DHT22;21042;47.620;12.188;2023-04-01T23:03:27;7.50;99.90
34829;DHT22;21042;47.620;12.188;2023-04-01T23:06:00;7.60;99.90
34829;DHT22;21042;47.620;12.188;2023-04-01T23:11:22;7.50;99.90
34829;DHT22;21042;47.620;12.188;2023-04-01T23:14:09;7.60;99.90
34829;DHT22;21042;47.620;12.188;2023-04-01T23:16:50;7.60;99.90
34829;DHT22;21042;47.620;12.188;2023-04-01T23:19:24;7.50;99.90
34829;DHT22;21042;47.620;12.188;2023-04-01T23:22:03;7.50;99.90
34829;DHT22;21042;47.620;12.188;2023-04-01T23:24:44;7.50;99.90
34829;DHT22;21042;47.620;12.188;2023-04-01T23:27:33;7.50;99.90
34829;DHT22;21042;47.620;12.188;2023-04-01T23:30:03;7.50;99.90
34829;DHT22;21042;47.620;12.188;2023-04-01T23:32:30;7.50;99.90
34829;DHT22;21042;47.620;12.188;2023-04-01T23:34:59;7.40;99.90
34829;DHT22;21042;47.620;12.188;2023-04-01T23:37:27;7.60;99.90
34829;DHT22;21042;47.620;12.188;2023-04-01T23:39:56;7.60;99.90
34829;DHT22;21042;47.620;12.188;2023-04-01T23:42:26;7.60;99.90
34829;DHT22;21042;47.620;12.188;2023-04-01T23:44:57;7.60;99.90
34829;DHT22;21042;47.620;12.188;2023-04-01T23:47:34;7.60;99.90
34829;DHT22;21042;47.620;12.188;2023-04-01T23:50:10;7.60;99.90
34829;DHT22;21042;47.620;12.188;2023-04-01T23:52:57;7.50;99.90
34829;DHT22;21042;47.620;12.188;2023-04-01T23:55:27;7.40;99.90
34829;DHT22;21042;47.620;12.188;2023-04-01T23:58:01;7.40;99.90
